sensor_id;sensor_type;location;lat;lon;timestamp;temperature;humidity
21214;DHT22;10764;50.850;2.904;2023-04-15T00:01:40;23.60;47.70
21214;DHT22;10764;50.850;2.904;2023-04-15T00:04:07;21.00;46.50
21214;DHT22;10764;50.850;2.904;2023-04-15T00:06:36;21.80;46.90
21214;DHT22;10764;50.850;2.904;2023-04-15T00:09:02;20.50;46.40
21214;DHT22;10764;50.850;2.904;2023-04-15T00:11:29;22.90;47.70
21214;DHT22;10764;50.850;2.904;2023-04-15T00:13:56;20.40;46.50
21214;DHT22;10764;50.850;2.904;2023-04-15T00:16:24;20.40;46.40
21214;DHT22;10764;50.850;2.904;2023-04-15T00:18:50;20.50;46.50
21214;DHT22;10764;50.850;2.904;2023-04-15T00:21:18;23.10;47.90
21214;DHT22;10764;50.850;2.904;2023-04-15T00:23:45;21.50;47.00
21214;DHT22;10764;50.850;2.904;2023-04-15T00:26:19;20.60;46.70
21214;DHT22;10764;50.850;2.904;2023-04-15T00:28:48;21.60;47.20
21214;DHT22;10764;50.850;2.904;2023-04-15T00:31:15;22.40;47.60
21214;DHT22;10764;50.850;2.904;2023-04-15T00:33:43;20.40;46.90
21214;DHT22;10764;50.850;2.904;2023-04-15T00:36:10;20.40;46.80
21214;DHT22;10764;50.850;2.904;2023-04-15T00:38:37;20.40;46.90
21214;DHT22;10764;50.850;2.904;2023-04-15T00:41:04;21.00;47.20
21214;DHT22;10764;50.850;2.904;2023-04-15T00:43:31;21.50;47.40
21214;DHT22;10764;50.850;2.904;2023-04-15T00:45:58;20.40;47.00
21214;DHT22;10764;50.850;2.904;2023-04-15T00:48:27;21.30;47.40
21214;DHT22;10764;50.850;2.904;2023-04-15T00:50:53;22.30;48.00
21214;DHT22;10764;50.850;2.904;2023-04-15T00:53:20;20.30;47.00
21214;DHT22;10764;50.850;2.904;2023-04-15T00:55:47;21.10;47.40
21214;DHT22;10764;50.850;2.904;2023-04-15T00:58:15;22.10;47.90
21214;DHT22;10764;50.850;2.904;2023-04-15T01:00:42;20.80;47.30
21214;DHT22;10764;50.850;2.904;2023-04-15T01:03:10;21.90;47.90
21214;DHT22;10764;50.850;2.904;2023-04-15T01:05:37;20.40;47.10
21214;DHT22;10764;50.850;2.904;2023-04-15T01:08:05;20.40;47.10
21214;DHT22;10764;50.850;2.904;2023-04-15T01:10:32;20.40;47.30
21214;DHT22;10764;50.850;2.904;2023-04-15T01:12:59;20.40;47.20
21214;DHT22;10764;50.850;2.904;2023-04-15T01:15:26;20.80;47.30
21214;DHT22;10764;50.850;2.904;2023-04-15T01:17:53;20.30;47.20
21214;DHT22;10764;50.850;2.904;2023-04-15T01:20:20;22.30;48.40
21214;DHT22;10764;50.850;2.904;2023-04-15T01:22:48;21.40;47.80
21214;DHT22;10764;50.850;2.904;2023-04-15T01:25:18;20.50;47.50
21214;DHT22;10764;50.850;2.904;2023-04-15T01:27:45;21.30;47.90
21214;DHT22;10764;50.850;2.904;2023-04-15T01:30:13;20.30;47.50
21214;DHT22;10764;50.850;2.904;2023-04-15T01:32:40;21.40;48.10
21214;DHT22;10764;50.850;2.904;2023-04-15T01:35:07;21.50;48.10
21214;DHT22;10764;50.850;2.904;2023-04-15T01:37:34;20.40;47.60
21214;DHT22;10764;50.850;2.904;2023-04-15T01:40:02;20.40;47.60
21214;DHT22;10764;50.850;2.904;2023-04-15T01:42:29;20.40;47.80
21214;DHT22;10764;50.850;2.904;2023-04-15T01:44:56;21.90;48.40
21214;DHT22;10764;50.850;2.904;2023-04-15T01:47:22;21.60;48.40
21214;DHT22;10764;50.850;2.904;2023-04-15T01:49:50;20.40;47.80
21214;DHT22;10764;50.850;2.904;2023-04-15T01:52:17;20.40;47.80
21214;DHT22;10764;50.850;2.904;2023-04-15T01:54:44;20.50;47.80
21214;DHT22;10764;50.850;2.904;2023-04-15T01:57:11;20.40;47.80
21214;DHT22;10764;50.850;2.904;2023-04-15T01:59:38;20.70;47.90
21214;DHT22;10764;50.850;2.904;2023-04-15T02:02:05;21.20;48.20
21214;DHT22;10764;50.850;2.904;2023-04-15T02:04:32;20.40;48.00
21214;DHT22;10764;50.850;2.904;2023-04-15T02:06:59;21.90;48.60
21214;DHT22;10764;50.850;2.904;2023-04-15T02:09:26;20.40;47.90
21214;DHT22;10764;50.850;2.904;2023-04-15T02:11:53;21.50;48.50
21214;DHT22;10764;50.850;2.904;2023-04-15T02:14:20;22.10;48.90
21214;DHT22;10764;50.850;2.904;2023-04-15T02:16:47;20.40;48.00
21214;DHT22;10764;50.850;2.904;2023-04-15T02:19:15;22.20;49.00
21214;DHT22;10764;50.850;2.904;2023-04-15T02:21:41;21.40;48.60
21214;DHT22;10764;50.850;2.904;2023-04-15T02:24:08;20.30;48.00
21214;DHT22;10764;50.850;2.904;2023-04-15T02:26:35;22.00;48.90
21214;DHT22;10764;50.850;2.904;2023-04-15T02:29:02;21.30;48.70
21214;DHT22;10764;50.850;2.904;2023-04-15T02:31:29;22.80;49.40
21214;DHT22;10764;50.850;2.904;2023-04-15T02:33:59;21.40;48.70
21214;DHT22;10764;50.850;2.904;2023-04-15T02:36:29;20.50;48.20
21214;DHT22;10764;50.850;2.904;2023-04-15T02:38:57;21.20;48.50
21214;DHT22;10764;50.850;2.904;2023-04-15T02:41:25;20.40;48.20
21214;DHT22;10764;50.850;2.904;2023-04-15T02:43:54;21.70;48.90
21214;DHT22;10764;50.850;2.904;2023-04-15T02:46:21;22.40;49.30
21214;DHT22;10764;50.850;2.904;2023-04-15T02:48:49;20.70;48.40
21214;DHT22;10764;50.850;2.904;2023-04-15T02:51:18;21.10;48.60
21214;DHT22;10764;50.850;2.904;2023-04-15T02:53:46;21.40;48.80
21214;DHT22;10764;50.850;2.904;2023-04-15T02:56:14;21.60;48.90
21214;DHT22;10764;50.850;2.904;2023-04-15T02:58:43;21.00;48.60
21214;DHT22;10764;50.850;2.904;2023-04-15T03:01:10;21.70;49.00
21214;DHT22;10764;50.850;2.904;2023-04-15T03:03:38;22.40;49.40
21214;DHT22;10764;50.850;2.904;2023-04-15T03:06:05;21.40;48.90
21214;DHT22;10764;50.850;2.904;2023-04-15T03:08:33;21.60;49.00
21214;DHT22;10764;50.850;2.904;2023-04-15T03:11:00;20.40;48.50
21214;DHT22;10764;50.850;2.904;2023-04-15T03:13:28;21.50;49.00
21214;DHT22;10764;50.850;2.904;2023-04-15T03:15:56;20.50;49.30
21214;DHT22;10764;50.850;2.904;2023-04-15T03:18:23;22.40;49.50
21214;DHT22;10764;50.850;2.904;2023-04-15T03:20:50;22.00;49.30
21214;DHT22;10764;50.850;2.904;2023-04-15T03:23:17;21.80;49.20
21214;DHT22;10764;50.850;2.904;2023-04-15T03:25:45;20.50;48.60
21214;DHT22;10764;50.850;2.904;2023-04-15T03:28:13;20.60;48.60
21214;DHT22;10764;50.850;2.904;2023-04-15T03:30:40;21.30;49.00
21214;DHT22;10764;50.850;2.904;2023-04-15T03:33:07;21.10;48.90
21214;DHT22;10764;50.850;2.904;2023-04-15T03:35:35;21.30;49.10
21214;DHT22;10764;50.850;2.904;2023-04-15T03:38:01;23.00;49.90
21214;DHT22;10764;50.850;2.904;2023-04-15T03:40:28;21.90;49.40
21214;DHT22;10764;50.850;2.904;2023-04-15T03:42:55;20.40;48.60
21214;DHT22;10764;50.850;2.904;2023-04-15T03:45:22;21.40;49.00
21214;DHT22;10764;50.850;2.904;2023-04-15T03:47:49;21.50;49.90
21214;DHT22;10764;50.850;2.904;2023-04-15T03:50:16;23.00;49.90
21214;DHT22;10764;50.850;2.904;2023-04-15T03:52:43;21.10;49.00
21214;DHT22;10764;50.850;2.904;2023-04-15T03:55:10;20.40;48.70
21214;DHT22;10764;50.850;2.904;2023-04-15T03:57:37;21.60;49.20
21214;DHT22;10764;50.850;2.904;2023-04-15T04:00:05;20.90;48.90
21214;DHT22;10764;50.850;2.904;2023-04-15T04:02:37;20.40;48.60
21214;DHT22;10764;50.850;2.904;2023-04-15T04:05:04;20.50;48.70
21214;DHT22;10764;50.850;2.904;2023-04-15T04:07:31;20.40;48.60
21214;DHT22;10764;50.850;2.904;2023-04-15T04:09:59;21.70;49.20
21214;DHT22;10764;50.850;2.904;2023-04-15T04:12:26;20.30;48.60
21214;DHT22;10764;50.850;2.904;2023-04-15T04:14:54;21.30;49.10
21214;DHT22;10764;50.850;2.904;2023-04-15T04:17:21;20.40;48.70
21214;DHT22;10764;50.850;2.904;2023-04-15T04:19:48;20.70;48.80
21214;DHT22;10764;50.850;2.904;2023-04-15T04:22:15;22.20;49.60
21214;DHT22;10764;50.850;2.904;2023-04-15T04:24:41;21.00;49.10
21214;DHT22;10764;50.850;2.904;2023-04-15T04:27:08;21.00;49.10
21214;DHT22;10764;50.850;2.904;2023-04-15T04:29:35;22.60;49.90
21214;DHT22;10764;50.850;2.904;2023-04-15T04:32:02;21.60;49.50
21214;DHT22;10764;50.850;2.904;2023-04-15T04:34:29;21.10;49.10
21214;DHT22;10764;50.850;2.904;2023-04-15T04:36:56;20.50;48.80
21214;DHT22;10764;50.850;2.904;2023-04-15T04:39:22;20.40;48.90
21214;DHT22;10764;50.850;2.904;2023-04-15T04:41:49;20.40;48.90
21214;DHT22;10764;50.850;2.904;2023-04-15T04:44:17;20.80;49.10
21214;DHT22;10764;50.850;2.904;2023-04-15T04:46:44;21.10;49.30
21214;DHT22;10764;50.850;2.904;2023-04-15T04:49:11;21.70;49.60
21214;DHT22;10764;50.850;2.904;2023-04-15T04:51:38;21.40;49.40
21214;DHT22;10764;50.850;2.904;2023-04-15T04:54:05;21.70;49.60
21214;DHT22;10764;50.850;2.904;2023-04-15T04:56:31;21.90;49.70
21214;DHT22;10764;50.850;2.904;2023-04-15T04:59:00;21.60;49.60
21214;DHT22;10764;50.850;2.904;2023-04-15T05:01:27;21.70;49.60
21214;DHT22;10764;50.850;2.904;2023-04-15T05:03:54;20.40;49.00
21214;DHT22;10764;50.850;2.904;2023-04-15T05:06:21;20.50;49.00
21214;DHT22;10764;50.850;2.904;2023-04-15T05:08:48;21.80;49.70
21214;DHT22;10764;50.850;2.904;2023-04-15T05:11:14;22.00;49.90
21214;DHT22;10764;50.850;2.904;2023-04-15T05:13:41;23.50;50.60
21214;DHT22;10764;50.850;2.904;2023-04-15T05:16:08;20.30;49.00
21214;DHT22;10764;50.850;2.904;2023-04-15T05:18:35;21.80;49.80
21214;DHT22;10764;50.850;2.904;2023-04-15T05:21:02;22.90;50.30
21214;DHT22;10764;50.850;2.904;2023-04-15T05:23:29;20.30;48.90
21214;DHT22;10764;50.850;2.904;2023-04-15T05:25:56;21.70;49.70
21214;DHT22;10764;50.850;2.904;2023-04-15T05:28:22;23.40;50.50
21214;DHT22;10764;50.850;2.904;2023-04-15T05:30:49;23.20;50.40
21214;DHT22;10764;50.850;2.904;2023-04-15T05:33:16;21.20;49.40
21214;DHT22;10764;50.850;2.904;2023-04-15T05:35:43;22.90;50.20
21214;DHT22;10764;50.850;2.904;2023-04-15T05:38:10;21.20;49.40
21214;DHT22;10764;50.850;2.904;2023-04-15T05:40:36;20.50;49.10
21214;DHT22;10764;50.850;2.904;2023-04-15T05:43:04;22.30;50.00
21214;DHT22;10764;50.850;2.904;2023-04-15T05:45:31;22.30;50.00
21214;DHT22;10764;50.850;2.904;2023-04-15T05:47:58;21.30;49.50
21214;DHT22;10764;50.850;2.904;2023-04-15T05:50:25;21.60;49.60
21214;DHT22;10764;50.850;2.904;2023-04-15T05:52:51;21.60;49.70
21214;DHT22;10764;50.850;2.904;2023-04-15T05:55:18;20.40;49.00
21214;DHT22;10764;50.850;2.904;2023-04-15T05:57:45;20.40;49.10
21214;DHT22;10764;50.850;2.904;2023-04-15T06:00:12;20.40;49.00
21214;DHT22;10764;50.850;2.904;2023-04-15T06:02:40;20.40;49.10
21214;DHT22;10764;50.850;2.904;2023-04-15T06:05:07;21.10;49.40
21214;DHT22;10764;50.850;2.904;2023-04-15T06:07:36;20.40;49.20
21214;DHT22;10764;50.850;2.904;2023-04-15T06:10:04;21.60;49.80
21214;DHT22;10764;50.850;2.904;2023-04-15T06:12:31;20.40;49.20
21214;DHT22;10764;50.850;2.904;2023-04-15T06:14:58;21.10;49.60
21214;DHT22;10764;50.850;2.904;2023-04-15T06:17:26;20.50;49.20
21214;DHT22;10764;50.850;2.904;2023-04-15T06:19:53;20.90;49.40
21214;DHT22;10764;50.850;2.904;2023-04-15T06:22:23;21.30;49.50
21214;DHT22;10764;50.850;2.904;2023-04-15T06:24:50;20.40;48.90
21214;DHT22;10764;50.850;2.904;2023-04-15T06:27:17;20.70;49.10
21214;DHT22;10764;50.850;2.904;2023-04-15T06:29:44;20.40;48.90
21214;DHT22;10764;50.850;2.904;2023-04-15T06:32:11;20.90;49.10
21214;DHT22;10764;50.850;2.904;2023-04-15T06:34:38;20.40;48.80
21214;DHT22;10764;50.850;2.904;2023-04-15T06:37:05;22.30;49.90
21214;DHT22;10764;50.850;2.904;2023-04-15T06:39:32;21.50;49.40
21214;DHT22;10764;50.850;2.904;2023-04-15T06:41:59;21.40;49.30
21214;DHT22;10764;50.850;2.904;2023-04-15T06:44:26;22.50;49.80
21214;DHT22;10764;50.850;2.904;2023-04-15T06:46:53;22.20;49.70
21214;DHT22;10764;50.850;2.904;2023-04-15T06:49:20;20.40;48.60
21214;DHT22;10764;50.850;2.904;2023-04-15T06:51:47;20.40;48.60
21214;DHT22;10764;50.850;2.904;2023-04-15T06:54:14;21.40;49.20
21214;DHT22;10764;50.850;2.904;2023-04-15T06:56:41;21.10;49.10
21214;DHT22;10764;50.850;2.904;2023-04-15T06:59:08;22.00;49.80
21214;DHT22;10764;50.850;2.904;2023-04-15T07:01:35;21.50;49.30
21214;DHT22;10764;50.850;2.904;2023-04-15T07:04:02;20.50;48.90
21214;DHT22;10764;50.850;2.904;2023-04-15T07:06:29;21.50;49.40
21214;DHT22;10764;50.850;2.904;2023-04-15T07:08:56;20.40;48.90
21214;DHT22;10764;50.850;2.904;2023-04-15T07:11:24;22.80;50.20
21214;DHT22;10764;50.850;2.904;2023-04-15T07:13:51;20.50;49.10
21214;DHT22;10764;50.850;2.904;2023-04-15T07:16:18;20.50;49.30
21214;DHT22;10764;50.850;2.904;2023-04-15T07:18:45;21.70;50.20
21214;DHT22;10764;50.850;2.904;2023-04-15T07:21:11;21.10;50.10
21214;DHT22;10764;50.850;2.904;2023-04-15T07:23:38;23.40;51.40
21214;DHT22;10764;50.850;2.904;2023-04-15T07:26:05;22.70;51.10
21214;DHT22;10764;50.850;2.904;2023-04-15T07:28:32;21.00;50.30
21214;DHT22;10764;50.850;2.904;2023-04-15T07:30:59;23.20;51.40
21214;DHT22;10764;50.850;2.904;2023-04-15T07:33:26;21.60;50.80
21214;DHT22;10764;50.850;2.904;2023-04-15T07:35:53;20.50;50.10
21214;DHT22;10764;50.850;2.904;2023-04-15T07:38:20;21.30;50.50
21214;DHT22;10764;50.850;2.904;2023-04-15T07:40:47;21.90;50.70
21214;DHT22;10764;50.850;2.904;2023-04-15T07:43:14;20.90;50.20
21214;DHT22;10764;50.850;2.904;2023-04-15T07:45:41;20.50;50.00
21214;DHT22;10764;50.850;2.904;2023-04-15T07:48:07;20.60;50.10
21214;DHT22;10764;50.850;2.904;2023-04-15T07:50:34;21.20;50.40
21214;DHT22;10764;50.850;2.904;2023-04-15T07:53:02;21.20;50.40
21214;DHT22;10764;50.850;2.904;2023-04-15T07:55:29;20.90;50.90
21214;DHT22;10764;50.850;2.904;2023-04-15T07:57:56;21.00;50.30
21214;DHT22;10764;50.850;2.904;2023-04-15T08:00:23;21.10;50.30
21214;DHT22;10764;50.850;2.904;2023-04-15T08:02:51;23.10;51.30
21214;DHT22;10764;50.850;2.904;2023-04-15T08:05:19;20.60;50.00
21214;DHT22;10764;50.850;2.904;2023-04-15T08:07:46;20.50;49.90
21214;DHT22;10764;50.850;2.904;2023-04-15T08:10:13;21.30;50.20
21214;DHT22;10764;50.850;2.904;2023-04-15T08:12:41;22.60;50.80
21214;DHT22;10764;50.850;2.904;2023-04-15T08:15:08;21.40;50.10
21214;DHT22;10764;50.850;2.904;2023-04-15T08:17:35;20.50;49.70
21214;DHT22;10764;50.850;2.904;2023-04-15T08:20:02;20.60;49.70
21214;DHT22;10764;50.850;2.904;2023-04-15T08:22:31;20.50;49.70
21214;DHT22;10764;50.850;2.904;2023-04-15T08:24:58;21.10;49.80
21214;DHT22;10764;50.850;2.904;2023-04-15T08:27:25;20.90;49.60
21214;DHT22;10764;50.850;2.904;2023-04-15T08:29:51;20.50;49.40
21214;DHT22;10764;50.850;2.904;2023-04-15T08:32:18;21.70;50.10
21214;DHT22;10764;50.850;2.904;2023-04-15T08:34:45;20.50;49.30
21214;DHT22;10764;50.850;2.904;2023-04-15T08:37:12;21.20;49.60
21214;DHT22;10764;50.850;2.904;2023-04-15T08:39:39;21.10;49.90
21214;DHT22;10764;50.850;2.904;2023-04-15T08:42:11;23.30;50.60
21214;DHT22;10764;50.850;2.904;2023-04-15T08:44:40;20.50;49.40
21214;DHT22;10764;50.850;2.904;2023-04-15T08:47:09;20.50;49.30
21214;DHT22;10764;50.850;2.904;2023-04-15T08:49:39;23.40;50.50
21214;DHT22;10764;50.850;2.904;2023-04-15T08:52:09;21.50;49.70
21214;DHT22;10764;50.850;2.904;2023-04-15T08:54:37;21.80;50.30
21214;DHT22;10764;50.850;2.904;2023-04-15T08:57:04;20.90;49.20
21214;DHT22;10764;50.850;2.904;2023-04-15T08:59:32;20.60;49.00
21214;DHT22;10764;50.850;2.904;2023-04-15T09:01:59;20.80;49.50
21214;DHT22;10764;50.850;2.904;2023-04-15T09:04:27;21.90;50.00
21214;DHT22;10764;50.850;2.904;2023-04-15T09:06:54;21.20;50.10
21214;DHT22;10764;50.850;2.904;2023-04-15T09:09:20;20.90;49.20
21214;DHT22;10764;50.850;2.904;2023-04-15T09:11:48;20.90;49.80
21214;DHT22;10764;50.850;2.904;2023-04-15T09:14:16;22.00;49.60
21214;DHT22;10764;50.850;2.904;2023-04-15T09:17:03;21.50;49.40
21214;DHT22;10764;50.850;2.904;2023-04-15T09:19:30;20.60;48.80
21214;DHT22;10764;50.850;2.904;2023-04-15T09:21:59;21.60;49.30
21214;DHT22;10764;50.850;2.904;2023-04-15T09:24:36;21.20;49.10
21214;DHT22;10764;50.850;2.904;2023-04-15T09:27:04;20.60;48.80
21214;DHT22;10764;50.850;2.904;2023-04-15T09:29:32;21.50;49.30
21214;DHT22;10764;50.850;2.904;2023-04-15T09:32:14;22.20;49.60
21214;DHT22;10764;50.850;2.904;2023-04-15T09:34:42;20.60;48.80
21214;DHT22;10764;50.850;2.904;2023-04-15T09:37:09;21.00;49.00
21214;DHT22;10764;50.850;2.904;2023-04-15T09:39:51;20.70;48.80
21214;DHT22;10764;50.850;2.904;2023-04-15T09:42:18;20.60;48.80
21214;DHT22;10764;50.850;2.904;2023-04-15T09:44:54;21.90;49.40
21214;DHT22;10764;50.850;2.904;2023-04-15T09:47:28;21.30;49.10
21214;DHT22;10764;50.850;2.904;2023-04-15T09:49:59;20.60;48.70
21214;DHT22;10764;50.850;2.904;2023-04-15T09:52:27;22.30;50.30
21214;DHT22;10764;50.850;2.904;2023-04-15T09:54:56;20.70;48.80
21214;DHT22;10764;50.850;2.904;2023-04-15T09:57:24;20.70;48.80
21214;DHT22;10764;50.850;2.904;2023-04-15T09:59:51;21.90;49.40
21214;DHT22;10764;50.850;2.904;2023-04-15T10:02:18;21.50;49.10
21214;DHT22;10764;50.850;2.904;2023-04-15T10:04:47;20.70;48.70
21214;DHT22;10764;50.850;2.904;2023-04-15T10:07:16;21.90;49.30
21214;DHT22;10764;50.850;2.904;2023-04-15T10:09:47;22.30;49.40
21214;DHT22;10764;50.850;2.904;2023-04-15T10:12:18;22.50;49.60
21214;DHT22;10764;50.850;2.904;2023-04-15T10:14:51;20.70;48.60
21214;DHT22;10764;50.850;2.904;2023-04-15T10:17:21;21.70;49.10
21214;DHT22;10764;50.850;2.904;2023-04-15T10:19:48;20.70;49.00
21214;DHT22;10764;50.850;2.904;2023-04-15T10:22:18;20.70;48.50
21214;DHT22;10764;50.850;2.904;2023-04-15T10:24:46;21.50;49.20
21214;DHT22;10764;50.850;2.904;2023-04-15T10:27:16;23.50;49.80
21214;DHT22;10764;50.850;2.904;2023-04-15T10:29:43;23.70;50.00
21214;DHT22;10764;50.850;2.904;2023-04-15T10:32:11;20.70;48.60
21214;DHT22;10764;50.850;2.904;2023-04-15T10:34:39;20.70;48.50
21214;DHT22;10764;50.850;2.904;2023-04-15T10:37:08;22.40;49.40
21214;DHT22;10764;50.850;2.904;2023-04-15T10:42:17;20.70;48.50
21214;DHT22;10764;50.850;2.904;2023-04-15T10:44:51;20.70;48.50
21214;DHT22;10764;50.850;2.904;2023-04-15T10:47:22;21.60;48.90
21214;DHT22;10764;50.850;2.904;2023-04-15T10:50:00;21.80;49.00
21214;DHT22;10764;50.850;2.904;2023-04-15T10:52:28;20.70;48.40
21214;DHT22;10764;50.850;2.904;2023-04-15T10:55:13;21.50;49.70
21214;DHT22;10764;50.850;2.904;2023-04-15T10:57:43;20.70;48.40
21214;DHT22;10764;50.850;2.904;2023-04-15T11:00:14;22.20;49.20
21214;DHT22;10764;50.850;2.904;2023-04-15T11:03:05;20.70;48.30
21214;DHT22;10764;50.850;2.904;2023-04-15T11:05:52;20.70;48.30
21214;DHT22;10764;50.850;2.904;2023-04-15T11:08:20;20.70;48.30
21214;DHT22;10764;50.850;2.904;2023-04-15T11:11:06;20.70;48.50
21214;DHT22;10764;50.850;2.904;2023-04-15T11:13:34;20.70;48.70
21214;DHT22;10764;50.850;2.904;2023-04-15T11:16:02;20.80;48.40
21214;DHT22;10764;50.850;2.904;2023-04-15T11:18:30;20.80;48.40
21214;DHT22;10764;50.850;2.904;2023-04-15T11:21:00;21.90;49.10
21214;DHT22;10764;50.850;2.904;2023-04-15T11:23:29;22.00;49.10
21214;DHT22;10764;50.850;2.904;2023-04-15T11:25:58;20.80;48.20
21214;DHT22;10764;50.850;2.904;2023-04-15T11:28:27;20.70;48.10
21214;DHT22;10764;50.850;2.904;2023-04-15T11:30:54;23.00;49.30
21214;DHT22;10764;50.850;2.904;2023-04-15T11:33:22;20.80;48.30
21214;DHT22;10764;50.850;2.904;2023-04-15T11:35:51;21.50;48.60
21214;DHT22;10764;50.850;2.904;2023-04-15T11:38:20;22.40;49.10
21214;DHT22;10764;50.850;2.904;2023-04-15T11:40:49;23.20;49.60
21214;DHT22;10764;50.850;2.904;2023-04-15T11:43:19;20.70;48.40
21214;DHT22;10764;50.850;2.904;2023-04-15T11:45:56;20.70;48.60
21214;DHT22;10764;50.850;2.904;2023-04-15T11:48:25;20.70;48.80
21214;DHT22;10764;50.850;2.904;2023-04-15T11:50:56;20.70;49.00
21214;DHT22;10764;50.850;2.904;2023-04-15T11:53:44;21.50;49.50
21214;DHT22;10764;50.850;2.904;2023-04-15T11:56:22;20.80;49.10
21214;DHT22;10764;50.850;2.904;2023-04-15T11:58:55;20.70;49.10
21214;DHT22;10764;50.850;2.904;2023-04-15T12:01:46;20.70;49.10
21214;DHT22;10764;50.850;2.904;2023-04-15T12:04:15;20.70;49.10
21214;DHT22;10764;50.850;2.904;2023-04-15T12:06:44;21.20;50.00
21214;DHT22;10764;50.850;2.904;2023-04-15T12:09:12;20.80;49.10
21214;DHT22;10764;50.850;2.904;2023-04-15T12:11:44;21.80;49.60
21214;DHT22;10764;50.850;2.904;2023-04-15T12:14:25;21.60;49.40
21214;DHT22;10764;50.850;2.904;2023-04-15T12:17:04;20.60;48.90
21214;DHT22;10764;50.850;2.904;2023-04-15T12:19:35;20.70;48.90
21214;DHT22;10764;50.850;2.904;2023-04-15T12:22:04;20.80;48.90
21214;DHT22;10764;50.850;2.904;2023-04-15T12:24:33;20.90;48.90
21214;DHT22;10764;50.850;2.904;2023-04-15T12:27:02;21.70;49.30
21214;DHT22;10764;50.850;2.904;2023-04-15T12:29:30;20.60;48.70
21214;DHT22;10764;50.850;2.904;2023-04-15T12:34:39;20.60;48.60
21214;DHT22;10764;50.850;2.904;2023-04-15T12:37:08;20.60;48.70
21214;DHT22;10764;50.850;2.904;2023-04-15T12:39:40;21.70;49.10
21214;DHT22;10764;50.850;2.904;2023-04-15T12:42:08;20.60;48.60
21214;DHT22;10764;50.850;2.904;2023-04-15T12:44:36;20.60;48.60
21214;DHT22;10764;50.850;2.904;2023-04-15T12:47:06;23.10;49.70
21214;DHT22;10764;50.850;2.904;2023-04-15T12:49:33;20.60;48.50
21214;DHT22;10764;50.850;2.904;2023-04-15T12:52:01;20.70;48.60
21214;DHT22;10764;50.850;2.904;2023-04-15T12:54:29;21.30;48.90
21214;DHT22;10764;50.850;2.904;2023-04-15T12:56:56;20.60;48.50
21214;DHT22;10764;50.850;2.904;2023-04-15T12:59:23;20.90;48.60
21214;DHT22;10764;50.850;2.904;2023-04-15T13:01:52;21.00;48.60
21214;DHT22;10764;50.850;2.904;2023-04-15T13:04:20;20.60;48.50
21214;DHT22;10764;50.850;2.904;2023-04-15T13:06:48;21.80;49.00
21214;DHT22;10764;50.850;2.904;2023-04-15T13:09:15;21.40;48.70
21214;DHT22;10764;50.850;2.904;2023-04-15T13:11:42;20.90;48.50
21214;DHT22;10764;50.850;2.904;2023-04-15T13:14:09;20.90;48.50
21214;DHT22;10764;50.850;2.904;2023-04-15T13:16:39;21.50;48.70
21214;DHT22;10764;50.850;2.904;2023-04-15T13:19:06;21.30;48.60
21214;DHT22;10764;50.850;2.904;2023-04-15T13:21:33;21.40;48.60
21214;DHT22;10764;50.850;2.904;2023-04-15T13:24:02;20.60;48.20
21214;DHT22;10764;50.850;2.904;2023-04-15T13:26:29;20.60;48.20
21214;DHT22;10764;50.850;2.904;2023-04-15T13:28:57;21.70;48.80
21214;DHT22;10764;50.850;2.904;2023-04-15T13:31:24;21.40;48.60
21214;DHT22;10764;50.850;2.904;2023-04-15T13:33:51;20.60;48.10
21214;DHT22;10764;50.850;2.904;2023-04-15T13:36:17;21.60;48.70
21214;DHT22;10764;50.850;2.904;2023-04-15T13:38:44;20.90;48.30
21214;DHT22;10764;50.850;2.904;2023-04-15T13:41:13;20.60;48.10
21214;DHT22;10764;50.850;2.904;2023-04-15T13:43:39;20.60;48.10
21214;DHT22;10764;50.850;2.904;2023-04-15T13:46:07;22.30;48.90
21214;DHT22;10764;50.850;2.904;2023-04-15T13:48:34;23.60;49.60
21214;DHT22;10764;50.850;2.904;2023-04-15T13:51:01;20.60;48.00
21214;DHT22;10764;50.850;2.904;2023-04-15T13:53:27;20.70;48.10
21214;DHT22;10764;50.850;2.904;2023-04-15T13:56:09;21.20;48.30
21214;DHT22;10764;50.850;2.904;2023-04-15T13:58:36;20.60;47.90
21214;DHT22;10764;50.850;2.904;2023-04-15T14:01:04;20.80;48.00
21214;DHT22;10764;50.850;2.904;2023-04-15T14:03:36;20.60;47.90
21214;DHT22;10764;50.850;2.904;2023-04-15T14:06:04;20.60;47.80
21214;DHT22;10764;50.850;2.904;2023-04-15T14:08:32;20.60;47.80
21214;DHT22;10764;50.850;2.904;2023-04-15T14:10:59;20.60;47.80
21214;DHT22;10764;50.850;2.904;2023-04-15T14:13:26;21.10;48.00
21214;DHT22;10764;50.850;2.904;2023-04-15T14:15:52;21.40;48.10
21214;DHT22;10764;50.850;2.904;2023-04-15T14:18:19;21.90;48.30
21214;DHT22;10764;50.850;2.904;2023-04-15T14:20:46;20.60;47.60
21214;DHT22;10764;50.850;2.904;2023-04-15T14:23:13;21.60;48.10
21214;DHT22;10764;50.850;2.904;2023-04-15T14:25:40;20.60;47.50
21214;DHT22;10764;50.850;2.904;2023-04-15T14:28:06;21.50;48.00
21214;DHT22;10764;50.850;2.904;2023-04-15T14:30:33;21.00;47.70
21214;DHT22;10764;50.850;2.904;2023-04-15T14:33:00;22.30;48.30
21214;DHT22;10764;50.850;2.904;2023-04-15T14:35:27;22.20;48.20
21214;DHT22;10764;50.850;2.904;2023-04-15T14:37:54;21.90;48.50
21214;DHT22;10764;50.850;2.904;2023-04-15T14:40:21;20.60;47.50
21214;DHT22;10764;50.850;2.904;2023-04-15T14:42:48;20.80;47.80
21214;DHT22;10764;50.850;2.904;2023-04-15T14:45:15;22.10;48.00
21214;DHT22;10764;50.850;2.904;2023-04-15T14:47:44;22.10;48.10
21214;DHT22;10764;50.850;2.904;2023-04-15T14:50:11;22.20;48.60
21214;DHT22;10764;50.850;2.904;2023-04-15T14:52:37;23.60;48.60
21214;DHT22;10764;50.850;2.904;2023-04-15T14:55:09;22.10;48.60
21214;DHT22;10764;50.850;2.904;2023-04-15T14:57:37;20.70;47.10
21214;DHT22;10764;50.850;2.904;2023-04-15T15:00:05;21.80;48.20
21214;DHT22;10764;50.850;2.904;2023-04-15T15:02:33;20.70;47.30
21214;DHT22;10764;50.850;2.904;2023-04-15T15:05:06;22.70;48.50
21214;DHT22;10764;50.850;2.904;2023-04-15T15:07:34;20.70;47.20
21214;DHT22;10764;50.850;2.904;2023-04-15T15:10:03;20.70;47.60
21214;DHT22;10764;50.850;2.904;2023-04-15T15:12:29;20.60;47.50
21214;DHT22;10764;50.850;2.904;2023-04-15T15:14:56;22.10;48.20
21214;DHT22;10764;50.850;2.904;2023-04-15T15:17:23;21.40;47.50
21214;DHT22;10764;50.850;2.904;2023-04-15T15:19:50;22.70;48.10
21214;DHT22;10764;50.850;2.904;2023-04-15T15:22:17;21.30;48.10
21214;DHT22;10764;50.850;2.904;2023-04-15T15:24:46;21.90;47.80
21214;DHT22;10764;50.850;2.904;2023-04-15T15:27:13;21.90;47.60
21214;DHT22;10764;50.850;2.904;2023-04-15T15:29:40;20.80;47.40
21214;DHT22;10764;50.850;2.904;2023-04-15T15:32:07;22.30;47.90
21214;DHT22;10764;50.850;2.904;2023-04-15T15:34:34;21.50;47.60
21214;DHT22;10764;50.850;2.904;2023-04-15T15:37:01;23.40;48.70
21214;DHT22;10764;50.850;2.904;2023-04-15T15:39:27;22.90;48.80
21214;DHT22;10764;50.850;2.904;2023-04-15T15:41:55;21.00;47.90